sensor_id;sensor_type;location;lat;lon;timestamp;P1;durP1;ratioP1;P2;durP2;ratioP2
44165;SDS011;30476;53.468;9.826;2023-07-31T00:00:16;0.70;;;0.70;;
44165;SDS011;30476;53.468;9.826;2023-07-31T00:02:42;0.67;;;0.60;;
44165;SDS011;30476;53.468;9.826;2023-07-31T00:05:08;0.70;;;0.70;;
44165;SDS011;30476;53.468;9.826;2023-07-31T00:07:35;5.20;;;0.80;;
44165;SDS011;30476;53.468;9.826;2023-07-31T00:10:00;3.50;;;0.93;;
44165;SDS011;30476;53.468;9.826;2023-07-31T00:12:26;0.70;;;0.70;;
44165;SDS011;30476;53.468;9.826;2023-07-31T00:14:52;1.63;;;0.70;;
44165;SDS011;30476;53.468;9.826;2023-07-31T00:17:18;0.83;;;0.70;;
44165;SDS011;30476;53.468;9.826;2023-07-31T00:19:44;0.87;;;0.87;;
44165;SDS011;30476;53.468;9.826;2023-07-31T00:22:11;0.80;;;0.80;;
44165;SDS011;30476;53.468;9.826;2023-07-31T00:24:37;0.83;;;0.70;;
44165;SDS011;30476;53.468;9.826;2023-07-31T00:27:03;2.00;;;0.90;;
44165;SDS011;30476;53.468;9.826;2023-07-31T00:29:29;3.50;;;0.70;;
44165;SDS011;30476;53.468;9.826;2023-07-31T00:31:56;2.83;;;1.00;;
44165;SDS011;30476;53.468;9.826;2023-07-31T00:34:21;0.67;;;0.57;;
44165;SDS011;30476;53.468;9.826;2023-07-31T00:36:47;1.23;;;0.80;;
44165;SDS011;30476;53.468;9.826;2023-07-31T00:39:13;1.30;;;1.00;;
44165;SDS011;30476;53.468;9.826;2023-07-31T00:41:39;0.50;;;0.50;;
44165;SDS011;30476;53.468;9.826;2023-07-31T00:44:04;2.07;;;1.17;;
44165;SDS011;30476;53.468;9.826;2023-07-31T00:46:30;1.13;;;0.60;;
44165;SDS011;30476;53.468;9.826;2023-07-31T00:48:56;0.93;;;0.80;;
44165;SDS011;30476;53.468;9.826;2023-07-31T00:51:22;2.50;;;0.57;;
44165;SDS011;30476;53.468;9.826;2023-07-31T00:53:48;1.53;;;0.73;;
44165;SDS011;30476;53.468;9.826;2023-07-31T00:56:14;0.50;;;0.50;;
44165;SDS011;30476;53.468;9.826;2023-07-31T00:58:41;0.73;;;0.73;;
44165;SDS011;30476;53.468;9.826;2023-07-31T01:01:06;2.10;;;0.90;;
44165;SDS011;30476;53.468;9.826;2023-07-31T01:03:32;0.67;;;0.67;;
44165;SDS011;30476;53.468;9.826;2023-07-31T01:06:08;1.33;;;0.80;;
44165;SDS011;30476;53.468;9.826;2023-07-31T01:08:58;2.33;;;0.93;;
44165;SDS011;30476;53.468;9.826;2023-07-31T01:11:33;0.97;;;0.90;;
44165;SDS011;30476;53.468;9.826;2023-07-31T01:14:03;8.83;;;1.27;;
44165;SDS011;30476;53.468;9.826;2023-07-31T01:16:29;3.90;;;1.10;;
44165;SDS011;30476;53.468;9.826;2023-07-31T01:18:55;0.73;;;0.73;;
44165;SDS011;30476;53.468;9.826;2023-07-31T01:21:22;2.30;;;1.03;;
44165;SDS011;30476;53.468;9.826;2023-07-31T01:26:43;5.03;;;0.90;;
44165;SDS011;30476;53.468;9.826;2023-07-31T01:29:16;1.13;;;0.87;;
44165;SDS011;30476;53.468;9.826;2023-07-31T01:31:48;0.67;;;0.67;;
44165;SDS011;30476;53.468;9.826;2023-07-31T01:34:17;1.13;;;0.83;;
44165;SDS011;30476;53.468;9.826;2023-07-31T01:36:43;1.30;;;1.03;;
44165;SDS011;30476;53.468;9.826;2023-07-31T01:39:09;1.00;;;0.80;;
44165;SDS011;30476;53.468;9.826;2023-07-31T01:41:35;1.20;;;1.00;;
44165;SDS011;30476;53.468;9.826;2023-07-31T01:44:00;0.80;;;0.80;;
44165;SDS011;30476;53.468;9.826;2023-07-31T01:46:26;0.97;;;0.90;;
44165;SDS011;30476;53.468;9.826;2023-07-31T01:48:52;1.40;;;1.00;;
44165;SDS011;30476;53.468;9.826;2023-07-31T01:51:18;1.10;;;1.00;;
44165;SDS011;30476;53.468;9.826;2023-07-31T01:53:43;9.30;;;1.00;;
44165;SDS011;30476;53.468;9.826;2023-07-31T01:56:09;1.23;;;0.90;;
44165;SDS011;30476;53.468;9.826;2023-07-31T01:58:35;0.87;;;0.87;;
44165;SDS011;30476;53.468;9.826;2023-07-31T02:01:01;1.10;;;1.00;;
44165;SDS011;30476;53.468;9.826;2023-07-31T02:03:27;1.00;;;0.90;;
44165;SDS011;30476;53.468;9.826;2023-07-31T02:05:53;1.00;;;0.90;;
44165;SDS011;30476;53.468;9.826;2023-07-31T02:08:19;1.23;;;1.00;;
44165;SDS011;30476;53.468;9.826;2023-07-31T02:10:45;2.07;;;1.10;;
44165;SDS011;30476;53.468;9.826;2023-07-31T02:13:11;4.97;;;0.80;;
44165;SDS011;30476;53.468;9.826;2023-07-31T02:15:37;1.10;;;1.00;;
44165;SDS011;30476;53.468;9.826;2023-07-31T02:18:02;1.30;;;1.00;;
44165;SDS011;30476;53.468;9.826;2023-07-31T02:20:28;2.27;;;1.83;;
44165;SDS011;30476;53.468;9.826;2023-07-31T02:22:54;1.30;;;0.90;;
44165;SDS011;30476;53.468;9.826;2023-07-31T02:25:20;3.10;;;1.00;;
44165;SDS011;30476;53.468;9.826;2023-07-31T02:27:45;1.40;;;1.07;;
44165;SDS011;30476;53.468;9.826;2023-07-31T02:30:11;3.30;;;0.90;;
44165;SDS011;30476;53.468;9.826;2023-07-31T02:32:37;3.07;;;1.00;;
44165;SDS011;30476;53.468;9.826;2023-07-31T02:35:02;0.80;;;0.77;;
44165;SDS011;30476;53.468;9.826;2023-07-31T02:37:29;6.10;;;1.10;;
44165;SDS011;30476;53.468;9.826;2023-07-31T02:39:55;0.63;;;0.63;;
44165;SDS011;30476;53.468;9.826;2023-07-31T02:42:20;3.90;;;0.93;;
44165;SDS011;30476;53.468;9.826;2023-07-31T02:44:46;0.97;;;0.90;;
44165;SDS011;30476;53.468;9.826;2023-07-31T02:47:12;1.00;;;1.00;;
44165;SDS011;30476;53.468;9.826;2023-07-31T02:49:38;0.63;;;0.63;;
44165;SDS011;30476;53.468;9.826;2023-07-31T02:52:04;1.00;;;0.80;;
44165;SDS011;30476;53.468;9.826;2023-07-31T02:54:30;2.03;;;1.17;;
44165;SDS011;30476;53.468;9.826;2023-07-31T02:56:55;0.90;;;0.90;;
44165;SDS011;30476;53.468;9.826;2023-07-31T02:59:21;1.40;;;1.30;;
44165;SDS011;30476;53.468;9.826;2023-07-31T03:01:47;0.80;;;0.80;;
44165;SDS011;30476;53.468;9.826;2023-07-31T03:04:13;1.47;;;1.40;;
44165;SDS011;30476;53.468;9.826;2023-07-31T03:06:38;4.23;;;0.77;;
44165;SDS011;30476;53.468;9.826;2023-07-31T03:09:04;1.17;;;1.07;;
44165;SDS011;30476;53.468;9.826;2023-07-31T03:11:30;0.70;;;0.70;;
44165;SDS011;30476;53.468;9.826;2023-07-31T03:13:55;1.90;;;1.30;;
44165;SDS011;30476;53.468;9.826;2023-07-31T03:16:21;1.60;;;0.90;;
44165;SDS011;30476;53.468;9.826;2023-07-31T03:18:47;0.70;;;0.70;;
44165;SDS011;30476;53.468;9.826;2023-07-31T03:21:14;1.27;;;1.13;;
44165;SDS011;30476;53.468;9.826;2023-07-31T03:23:39;1.07;;;0.87;;
44165;SDS011;30476;53.468;9.826;2023-07-31T03:26:06;0.80;;;0.80;;
44165;SDS011;30476;53.468;9.826;2023-07-31T03:28:32;0.80;;;0.80;;
44165;SDS011;30476;53.468;9.826;2023-07-31T03:30:58;1.60;;;1.00;;
44165;SDS011;30476;53.468;9.826;2023-07-31T03:33:25;2.40;;;0.80;;
44165;SDS011;30476;53.468;9.826;2023-07-31T03:35:51;1.27;;;1.00;;
44165;SDS011;30476;53.468;9.826;2023-07-31T03:38:17;6.73;;;0.90;;
44165;SDS011;30476;53.468;9.826;2023-07-31T03:40:43;1.17;;;1.10;;
44165;SDS011;30476;53.468;9.826;2023-07-31T03:43:09;2.00;;;0.90;;
44165;SDS011;30476;53.468;9.826;2023-07-31T03:45:35;1.33;;;1.23;;
44165;SDS011;30476;53.468;9.826;2023-07-31T03:48:01;2.13;;;0.90;;
44165;SDS011;30476;53.468;9.826;2023-07-31T03:50:26;5.00;;;1.20;;
44165;SDS011;30476;53.468;9.826;2023-07-31T03:52:52;3.27;;;1.53;;
44165;SDS011;30476;53.468;9.826;2023-07-31T03:55:18;0.90;;;0.90;;
44165;SDS011;30476;53.468;9.826;2023-07-31T03:57:44;1.23;;;1.07;;
44165;SDS011;30476;53.468;9.826;2023-07-31T04:00:10;1.03;;;0.93;;
44165;SDS011;30476;53.468;9.826;2023-07-31T04:02:36;1.03;;;0.90;;
44165;SDS011;30476;53.468;9.826;2023-07-31T04:05:01;0.80;;;0.80;;
44165;SDS011;30476;53.468;9.826;2023-07-31T04:07:27;0.90;;;0.90;;
44165;SDS011;30476;53.468;9.826;2023-07-31T04:09:53;1.50;;;1.13;;
44165;SDS011;30476;53.468;9.826;2023-07-31T04:12:19;1.23;;;1.13;;
44165;SDS011;30476;53.468;9.826;2023-07-31T04:14:45;1.53;;;1.10;;
44165;SDS011;30476;53.468;9.826;2023-07-31T04:17:10;1.00;;;0.90;;
44165;SDS011;30476;53.468;9.826;2023-07-31T04:19:36;1.23;;;1.13;;
44165;SDS011;30476;53.468;9.826;2023-07-31T04:22:02;1.13;;;0.80;;
44165;SDS011;30476;53.468;9.826;2023-07-31T04:24:29;1.00;;;0.93;;
44165;SDS011;30476;53.468;9.826;2023-07-31T04:26:54;0.87;;;0.87;;
44165;SDS011;30476;53.468;9.826;2023-07-31T04:29:20;1.60;;;1.00;;
44165;SDS011;30476;53.468;9.826;2023-07-31T04:31:47;1.10;;;1.00;;
44165;SDS011;30476;53.468;9.826;2023-07-31T04:34:13;1.23;;;1.13;;
44165;SDS011;30476;53.468;9.826;2023-07-31T04:36:39;0.60;;;0.60;;
44165;SDS011;30476;53.468;9.826;2023-07-31T04:39:05;1.57;;;1.10;;
44165;SDS011;30476;53.468;9.826;2023-07-31T04:41:31;0.63;;;0.63;;
44165;SDS011;30476;53.468;9.826;2023-07-31T04:43:57;1.40;;;0.80;;
44165;SDS011;30476;53.468;9.826;2023-07-31T04:46:22;4.83;;;0.80;;
44165;SDS011;30476;53.468;9.826;2023-07-31T04:48:48;10.03;;;1.47;;
44165;SDS011;30476;53.468;9.826;2023-07-31T04:51:14;0.90;;;0.90;;
44165;SDS011;30476;53.468;9.826;2023-07-31T04:53:40;1.80;;;1.13;;
44165;SDS011;30476;53.468;9.826;2023-07-31T04:56:06;0.90;;;0.90;;
44165;SDS011;30476;53.468;9.826;2023-07-31T04:58:32;1.27;;;0.93;;
44165;SDS011;30476;53.468;9.826;2023-07-31T05:00:58;0.80;;;0.80;;
44165;SDS011;30476;53.468;9.826;2023-07-31T05:03:23;0.97;;;0.87;;
44165;SDS011;30476;53.468;9.826;2023-07-31T05:05:49;1.40;;;0.90;;
44165;SDS011;30476;53.468;9.826;2023-07-31T05:08:16;2.70;;;1.10;;
44165;SDS011;30476;53.468;9.826;2023-07-31T05:10:43;1.20;;;0.90;;
44165;SDS011;30476;53.468;9.826;2023-07-31T05:13:09;1.43;;;1.33;;
44165;SDS011;30476;53.468;9.826;2023-07-31T05:15:34;1.43;;;1.33;;
44165;SDS011;30476;53.468;9.826;2023-07-31T05:18:00;0.80;;;0.80;;
44165;SDS011;30476;53.468;9.826;2023-07-31T05:20:26;1.00;;;0.90;;
44165;SDS011;30476;53.468;9.826;2023-07-31T05:22:52;0.90;;;0.90;;
44165;SDS011;30476;53.468;9.826;2023-07-31T05:25:19;1.17;;;1.07;;
44165;SDS011;30476;53.468;9.826;2023-07-31T05:27:45;1.10;;;0.97;;
44165;SDS011;30476;53.468;9.826;2023-07-31T05:30:10;0.70;;;0.70;;
44165;SDS011;30476;53.468;9.826;2023-07-31T05:32:36;1.20;;;1.17;;
44165;SDS011;30476;53.468;9.826;2023-07-31T05:35:02;0.90;;;0.90;;
44165;SDS011;30476;53.468;9.826;2023-07-31T05:37:28;1.60;;;1.37;;
44165;SDS011;30476;53.468;9.826;2023-07-31T05:39:54;0.77;;;0.77;;
44165;SDS011;30476;53.468;9.826;2023-07-31T05:42:19;1.80;;;1.50;;
44165;SDS011;30476;53.468;9.826;2023-07-31T05:44:45;1.10;;;1.00;;
44165;SDS011;30476;53.468;9.826;2023-07-31T05:47:12;1.30;;;1.20;;
44165;SDS011;30476;53.468;9.826;2023-07-31T05:49:38;1.20;;;1.10;;
44165;SDS011;30476;53.468;9.826;2023-07-31T05:52:03;0.90;;;0.90;;
44165;SDS011;30476;53.468;9.826;2023-07-31T05:54:29;1.27;;;1.13;;
44165;SDS011;30476;53.468;9.826;2023-07-31T05:56:56;1.80;;;1.30;;
44165;SDS011;30476;53.468;9.826;2023-07-31T05:59:22;1.63;;;1.37;;
44165;SDS011;30476;53.468;9.826;2023-07-31T06:01:48;1.40;;;1.03;;
44165;SDS011;30476;53.468;9.826;2023-07-31T06:04:13;1.07;;;0.90;;
44165;SDS011;30476;53.468;9.826;2023-07-31T06:06:39;1.10;;;1.03;;
44165;SDS011;30476;53.468;9.826;2023-07-31T06:09:05;1.67;;;1.10;;
44165;SDS011;30476;53.468;9.826;2023-07-31T06:11:32;1.30;;;1.20;;
44165;SDS011;30476;53.468;9.826;2023-07-31T06:13:58;0.90;;;0.90;;
44165;SDS011;30476;53.468;9.826;2023-07-31T06:16:24;2.50;;;1.50;;
44165;SDS011;30476;53.468;9.826;2023-07-31T06:18:52;0.93;;;0.93;;
44165;SDS011;30476;53.468;9.826;2023-07-31T06:21:18;1.50;;;1.20;;
44165;SDS011;30476;53.468;9.826;2023-07-31T06:23:43;1.23;;;0.87;;
44165;SDS011;30476;53.468;9.826;2023-07-31T06:26:09;1.30;;;1.20;;
44165;SDS011;30476;53.468;9.826;2023-07-31T06:28:35;1.83;;;1.10;;
44165;SDS011;30476;53.468;9.826;2023-07-31T06:31:01;1.10;;;1.00;;
44165;SDS011;30476;53.468;9.826;2023-07-31T06:33:27;1.00;;;0.90;;
44165;SDS011;30476;53.468;9.826;2023-07-31T06:35:53;0.90;;;0.90;;
44165;SDS011;30476;53.468;9.826;2023-07-31T06:38:22;1.47;;;0.90;;
44165;SDS011;30476;53.468;9.826;2023-07-31T06:40:50;1.13;;;1.07;;
44165;SDS011;30476;53.468;9.826;2023-07-31T06:43:15;0.90;;;0.90;;
44165;SDS011;30476;53.468;9.826;2023-07-31T06:45:41;0.87;;;0.87;;
44165;SDS011;30476;53.468;9.826;2023-07-31T06:48:07;1.40;;;1.30;;
44165;SDS011;30476;53.468;9.826;2023-07-31T06:50:33;0.70;;;0.70;;
44165;SDS011;30476;53.468;9.826;2023-07-31T06:52:59;1.57;;;0.80;;
44165;SDS011;30476;53.468;9.826;2023-07-31T06:55:25;0.90;;;0.90;;
44165;SDS011;30476;53.468;9.826;2023-07-31T06:57:52;0.80;;;0.77;;
44165;SDS011;30476;53.468;9.826;2023-07-31T07:00:19;1.03;;;0.93;;
44165;SDS011;30476;53.468;9.826;2023-07-31T07:02:46;0.60;;;0.60;;
44165;SDS011;30476;53.468;9.826;2023-07-31T07:05:15;0.73;;;0.73;;
44165;SDS011;30476;53.468;9.826;2023-07-31T07:07:42;1.27;;;0.90;;
44165;SDS011;30476;53.468;9.826;2023-07-31T07:10:08;0.87;;;0.80;;
44165;SDS011;30476;53.468;9.826;2023-07-31T07:12:34;1.13;;;1.13;;
44165;SDS011;30476;53.468;9.826;2023-07-31T07:15:00;1.00;;;0.90;;
44165;SDS011;30476;53.468;9.826;2023-07-31T07:17:27;0.80;;;0.80;;
44165;SDS011;30476;53.468;9.826;2023-07-31T07:19:56;0.90;;;0.90;;
44165;SDS011;30476;53.468;9.826;2023-07-31T07:22:22;1.20;;;1.10;;
44165;SDS011;30476;53.468;9.826;2023-07-31T07:24:48;1.30;;;1.20;;
44165;SDS011;30476;53.468;9.826;2023-07-31T07:27:14;1.30;;;1.20;;
44165;SDS011;30476;53.468;9.826;2023-07-31T07:29:40;1.97;;;0.90;;
44165;SDS011;30476;53.468;9.826;2023-07-31T07:32:06;1.90;;;0.97;;
44165;SDS011;30476;53.468;9.826;2023-07-31T07:34:32;0.73;;;0.73;;
44165;SDS011;30476;53.468;9.826;2023-07-31T07:36:58;0.77;;;0.77;;
44165;SDS011;30476;53.468;9.826;2023-07-31T07:39:23;1.50;;;0.80;;
44165;SDS011;30476;53.468;9.826;2023-07-31T07:41:50;0.70;;;0.70;;
44165;SDS011;30476;53.468;9.826;2023-07-31T07:44:15;0.90;;;0.80;;
44165;SDS011;30476;53.468;9.826;2023-07-31T07:46:41;0.73;;;0.70;;
44165;SDS011;30476;53.468;9.826;2023-07-31T07:49:07;0.47;;;0.43;;
44165;SDS011;30476;53.468;9.826;2023-07-31T07:51:33;1.50;;;1.00;;
44165;SDS011;30476;53.468;9.826;2023-07-31T07:53:59;0.53;;;0.53;;
44165;SDS011;30476;53.468;9.826;2023-07-31T07:56:25;0.80;;;0.80;;
44165;SDS011;30476;53.468;9.826;2023-07-31T07:58:52;1.43;;;0.53;;
44165;SDS011;30476;53.468;9.826;2023-07-31T08:01:18;0.67;;;0.67;;
44165;SDS011;30476;53.468;9.826;2023-07-31T08:03:44;0.50;;;0.50;;
44165;SDS011;30476;53.468;9.826;2023-07-31T08:06:10;0.50;;;0.50;;
44165;SDS011;30476;53.468;9.826;2023-07-31T08:08:36;0.53;;;0.53;;
44165;SDS011;30476;53.468;9.826;2023-07-31T08:11:02;0.50;;;0.50;;
44165;SDS011;30476;53.468;9.826;2023-07-31T08:13:28;0.67;;;0.60;;
44165;SDS011;30476;53.468;9.826;2023-07-31T08:15:54;1.30;;;0.60;;
44165;SDS011;30476;53.468;9.826;2023-07-31T08:18:20;0.67;;;0.60;;
44165;SDS011;30476;53.468;9.826;2023-07-31T08:20:46;0.40;;;0.40;;
44165;SDS011;30476;53.468;9.826;2023-07-31T08:23:12;4.33;;;0.70;;
44165;SDS011;30476;53.468;9.826;2023-07-31T08:25:38;0.50;;;0.47;;
44165;SDS011;30476;53.468;9.826;2023-07-31T08:28:05;1.00;;;0.60;;
44165;SDS011;30476;53.468;9.826;2023-07-31T08:30:31;0.40;;;0.40;;
44165;SDS011;30476;53.468;9.826;2023-07-31T08:32:58;0.63;;;0.60;;
44165;SDS011;30476;53.468;9.826;2023-07-31T08:35:24;0.40;;;0.40;;
44165;SDS011;30476;53.468;9.826;2023-07-31T08:37:51;0.50;;;0.50;;
44165;SDS011;30476;53.468;9.826;2023-07-31T08:40:17;0.40;;;0.40;;
44165;SDS011;30476;53.468;9.826;2023-07-31T08:42:43;0.50;;;0.50;;
44165;SDS011;30476;53.468;9.826;2023-07-31T08:45:12;0.50;;;0.50;;
44165;SDS011;30476;53.468;9.826;2023-07-31T08:47:40;0.40;;;0.40;;
44165;SDS011;30476;53.468;9.826;2023-07-31T08:50:07;0.40;;;0.30;;
44165;SDS011;30476;53.468;9.826;2023-07-31T08:52:33;0.50;;;0.47;;
44165;SDS011;30476;53.468;9.826;2023-07-31T08:54:59;0.60;;;0.40;;
44165;SDS011;30476;53.468;9.826;2023-07-31T08:57:25;0.30;;;0.30;;
44165;SDS011;30476;53.468;9.826;2023-07-31T08:59:51;0.40;;;0.30;;
44165;SDS011;30476;53.468;9.826;2023-07-31T09:02:18;0.40;;;0.40;;
44165;SDS011;30476;53.468;9.826;2023-07-31T09:04:44;0.47;;;0.40;;
44165;SDS011;30476;53.468;9.826;2023-07-31T09:07:10;0.50;;;0.40;;
44165;SDS011;30476;53.468;9.826;2023-07-31T09:09:39;0.30;;;0.30;;
44165;SDS011;30476;53.468;9.826;2023-07-31T09:12:05;0.40;;;0.30;;
44165;SDS011;30476;53.468;9.826;2023-07-31T09:14:32;0.40;;;0.40;;
44165;SDS011;30476;53.468;9.826;2023-07-31T09:16:58;0.40;;;0.40;;
44165;SDS011;30476;53.468;9.826;2023-07-31T09:19:29;0.40;;;0.37;;
44165;SDS011;30476;53.468;9.826;2023-07-31T09:21:59;0.70;;;0.50;;
44165;SDS011;30476;53.468;9.826;2023-07-31T09:24:26;0.40;;;0.40;;
44165;SDS011;30476;53.468;9.826;2023-07-31T09:26:56;0.50;;;0.30;;
44165;SDS011;30476;53.468;9.826;2023-07-31T09:29:24;0.43;;;0.37;;
44165;SDS011;30476;53.468;9.826;2023-07-31T09:31:51;0.50;;;0.40;;
44165;SDS011;30476;53.468;9.826;2023-07-31T09:34:18;0.37;;;0.30;;
44165;SDS011;30476;53.468;9.826;2023-07-31T09:36:45;0.30;;;0.30;;
44165;SDS011;30476;53.468;9.826;2023-07-31T09:39:13;0.40;;;0.30;;
44165;SDS011;30476;53.468;9.826;2023-07-31T09:41:42;0.40;;;0.30;;
44165;SDS011;30476;53.468;9.826;2023-07-31T09:44:09;0.40;;;0.30;;
44165;SDS011;30476;53.468;9.826;2023-07-31T09:46:35;0.30;;;0.30;;
44165;SDS011;30476;53.468;9.826;2023-07-31T09:49:11;0.30;;;0.30;;
44165;SDS011;30476;53.468;9.826;2023-07-31T09:51:38;0.30;;;0.23;;
44165;SDS011;30476;53.468;9.826;2023-07-31T09:54:12;0.30;;;0.30;;
44165;SDS011;30476;53.468;9.826;2023-07-31T09:56:43;0.30;;;0.30;;
44165;SDS011;30476;53.468;9.826;2023-07-31T09:59:11;0.30;;;0.30;;
44165;SDS011;30476;53.468;9.826;2023-07-31T10:01:39;0.37;;;0.30;;
44165;SDS011;30476;53.468;9.826;2023-07-31T10:04:06;0.30;;;0.30;;
44165;SDS011;30476;53.468;9.826;2023-07-31T10:06:34;0.40;;;0.30;;
44165;SDS011;30476;53.468;9.826;2023-07-31T10:09:02;0.30;;;0.30;;
44165;SDS011;30476;53.468;9.826;2023-07-31T10:11:30;0.30;;;0.30;;
44165;SDS011;30476;53.468;9.826;2023-07-31T10:14:00;0.40;;;0.30;;
44165;SDS011;30476;53.468;9.826;2023-07-31T10:16:27;0.40;;;0.40;;
44165;SDS011;30476;53.468;9.826;2023-07-31T10:18:54;0.67;;;0.53;;
44165;SDS011;30476;53.468;9.826;2023-07-31T10:21:20;0.90;;;0.70;;
44165;SDS011;30476;53.468;9.826;2023-07-31T10:23:45;0.60;;;0.60;;
44165;SDS011;30476;53.468;9.826;2023-07-31T10:26:13;0.80;;;0.80;;
44165;SDS011;30476;53.468;9.826;2023-07-31T10:28:39;0.80;;;0.60;;
44165;SDS011;30476;53.468;9.826;2023-07-31T10:31:06;1.23;;;0.70;;
44165;SDS011;30476;53.468;9.826;2023-07-31T10:33:32;1.10;;;1.00;;
44165;SDS011;30476;53.468;9.826;2023-07-31T10:36:14;1.93;;;1.30;;
44165;SDS011;30476;53.468;9.826;2023-07-31T10:38:43;3.50;;;1.47;;
44165;SDS011;30476;53.468;9.826;2023-07-31T10:41:09;2.17;;;1.50;;
44165;SDS011;30476;53.468;9.826;2023-07-31T10:43:38;3.40;;;3.03;;
44165;SDS011;30476;53.468;9.826;2023-07-31T10:46:08;3.20;;;2.33;;
44165;SDS011;30476;53.468;9.826;2023-07-31T10:48:38;3.80;;;2.37;;
44165;SDS011;30476;53.468;9.826;2023-07-31T10:51:10;1.90;;;1.80;;
44165;SDS011;30476;53.468;9.826;2023-07-31T10:53:42;2.90;;;1.97;;
44165;SDS011;30476;53.468;9.826;2023-07-31T10:56:09;3.40;;;3.20;;
44165;SDS011;30476;53.468;9.826;2023-07-31T10:58:38;3.47;;;2.30;;
44165;SDS011;30476;53.468;9.826;2023-07-31T11:01:04;1.93;;;1.70;;
44165;SDS011;30476;53.468;9.826;2023-07-31T11:03:49;1.80;;;1.63;;
44165;SDS011;30476;53.468;9.826;2023-07-31T11:06:17;2.70;;;1.60;;
44165;SDS011;30476;53.468;9.826;2023-07-31T11:08:50;1.70;;;1.60;;
44165;SDS011;30476;53.468;9.826;2023-07-31T11:11:17;2.40;;;1.90;;
44165;SDS011;30476;53.468;9.826;2023-07-31T11:13:45;5.00;;;1.83;;
44165;SDS011;30476;53.468;9.826;2023-07-31T11:16:19;2.80;;;1.40;;
44165;SDS011;30476;53.468;9.826;2023-07-31T11:18:49;1.03;;;1.00;;
44165;SDS011;30476;53.468;9.826;2023-07-31T11:21:17;1.80;;;1.70;;
44165;SDS011;30476;53.468;9.826;2023-07-31T11:23:50;2.00;;;1.20;;
44165;SDS011;30476;53.468;9.826;2023-07-31T11:26:17;4.47;;;1.47;;
44165;SDS011;30476;53.468;9.826;2023-07-31T11:28:46;1.20;;;1.10;;
44165;SDS011;30476;53.468;9.826;2023-07-31T11:31:13;1.40;;;1.30;;
44165;SDS011;30476;53.468;9.826;2023-07-31T11:33:38;1.63;;;1.10;;
44165;SDS011;30476;53.468;9.826;2023-07-31T11:36:04;1.20;;;1.10;;
44165;SDS011;30476;53.468;9.826;2023-07-31T11:38:31;0.83;;;0.83;;
44165;SDS011;30476;53.468;9.826;2023-07-31T11:40:59;1.23;;;1.13;;
44165;SDS011;30476;53.468;9.826;2023-07-31T11:43:32;1.73;;;1.53;;
44165;SDS011;30476;53.468;9.826;2023-07-31T11:45:59;1.33;;;1.10;;
44165;SDS011;30476;53.468;9.826;2023-07-31T11:48:29;1.27;;;0.93;;
44165;SDS011;30476;53.468;9.826;2023-07-31T11:50:58;1.50;;;1.40;;
44165;SDS011;30476;53.468;9.826;2023-07-31T11:53:30;1.30;;;1.20;;
44165;SDS011;30476;53.468;9.826;2023-07-31T11:56:09;1.10;;;1.00;;
44165;SDS011;30476;53.468;9.826;2023-07-31T11:58:37;0.90;;;0.90;;
44165;SDS011;30476;53.468;9.826;2023-07-31T12:01:04;0.80;;;0.80;;
44165;SDS011;30476;53.468;9.826;2023-07-31T12:03:31;1.37;;;0.90;;
44165;SDS011;30476;53.468;9.826;2023-07-31T12:05:58;2.50;;;1.00;;
44165;SDS011;30476;53.468;9.826;2023-07-31T12:08:24;0.80;;;0.80;;
44165;SDS011;30476;53.468;9.826;2023-07-31T12:10:51;0.50;;;0.50;;
44165;SDS011;30476;53.468;9.826;2023-07-31T12:13:21;0.73;;;0.73;;
44165;SDS011;30476;53.468;9.826;2023-07-31T12:15:54;0.70;;;0.70;;
44165;SDS011;30476;53.468;9.826;2023-07-31T12:18:23;0.70;;;0.67;;
44165;SDS011;30476;53.468;9.826;2023-07-31T12:20:54;1.90;;;0.70;;
44165;SDS011;30476;53.468;9.826;2023-07-31T12:23:21;1.10;;;0.83;;
44165;SDS011;30476;53.468;9.826;2023-07-31T12:28:44;0.67;;;0.67;;
44165;SDS011;30476;53.468;9.826;2023-07-31T12:31:15;0.60;;;0.60;;
44165;SDS011;30476;53.468;9.826;2023-07-31T12:33:46;0.50;;;0.50;;
44165;SDS011;30476;53.468;9.826;2023-07-31T12:36:14;1.33;;;0.80;;
44165;SDS011;30476;53.468;9.826;2023-07-31T12:38:42;0.70;;;0.60;;
44165;SDS011;30476;53.468;9.826;2023-07-31T12:41:08;0.97;;;0.80;;
44165;SDS011;30476;53.468;9.826;2023-07-31T12:43:35;0.60;;;0.50;;
44165;SDS011;30476;53.468;9.826;2023-07-31T12:46:01;0.63;;;0.63;;
44165;SDS011;30476;53.468;9.826;2023-07-31T12:48:28;0.60;;;0.60;;
44165;SDS011;30476;53.468;9.826;2023-07-31T12:50:54;1.27;;;0.60;;
44165;SDS011;30476;53.468;9.826;2023-07-31T12:53:20;0.50;;;0.40;;
44165;SDS011;30476;53.468;9.826;2023-07-31T12:55:46;0.57;;;0.50;;
44165;SDS011;30476;53.468;9.826;2023-07-31T12:58:12;0.50;;;0.50;;
44165;SDS011;30476;53.468;9.826;2023-07-31T13:00:38;1.43;;;0.60;;
44165;SDS011;30476;53.468;9.826;2023-07-31T13:03:04;0.40;;;0.40;;
44165;SDS011;30476;53.468;9.826;2023-07-31T13:05:30;0.40;;;0.40;;
44165;SDS011;30476;53.468;9.826;2023-07-31T13:07:56;1.03;;;0.40;;
44165;SDS011;30476;53.468;9.826;2023-07-31T13:10:22;2.20;;;0.67;;
44165;SDS011;30476;53.468;9.826;2023-07-31T13:12:48;0.50;;;0.50;;
44165;SDS011;30476;53.468;9.826;2023-07-31T13:15:14;0.40;;;0.40;;
44165;SDS011;30476;53.468;9.826;2023-07-31T13:17:40;0.40;;;0.40;;
44165;SDS011;30476;53.468;9.826;2023-07-31T13:20:06;0.50;;;0.40;;
44165;SDS011;30476;53.468;9.826;2023-07-31T13:22:32;0.50;;;0.40;;
44165;SDS011;30476;53.468;9.826;2023-07-31T13:24:58;0.50;;;0.50;;
44165;SDS011;30476;53.468;9.826;2023-07-31T13:27:24;0.60;;;0.50;;
44165;SDS011;30476;53.468;9.826;2023-07-31T13:29:50;0.40;;;0.40;;
44165;SDS011;30476;53.468;9.826;2023-07-31T13:32:17;0.40;;;0.30;;
44165;SDS011;30476;53.468;9.826;2023-07-31T13:34:43;0.40;;;0.30;;
44165;SDS011;30476;53.468;9.826;2023-07-31T13:37:09;0.40;;;0.40;;
44165;SDS011;30476;53.468;9.826;2023-07-31T13:39:35;0.43;;;0.43;;
44165;SDS011;30476;53.468;9.826;2023-07-31T13:42:02;0.50;;;0.50;;
44165;SDS011;30476;53.468;9.826;2023-07-31T13:44:28;0.40;;;0.40;;
44165;SDS011;30476;53.468;9.826;2023-07-31T13:46:54;0.47;;;0.47;;
44165;SDS011;30476;53.468;9.826;2023-07-31T13:49:20;0.43;;;0.40;;
44165;SDS011;30476;53.468;9.826;2023-07-31T13:51:45;0.50;;;0.40;;
44165;SDS011;30476;53.468;9.826;2023-07-31T13:54:11;0.47;;;0.47;;
44165;SDS011;30476;53.468;9.826;2023-07-31T13:56:37;0.57;;;0.40;;
44165;SDS011;30476;53.468;9.826;2023-07-31T13:59:03;0.40;;;0.40;;
44165;SDS011;30476;53.468;9.826;2023-07-31T14:01:29;0.50;;;0.40;;
44165;SDS011;30476;53.468;9.826;2023-07-31T14:03:55;0.33;;;0.30;;
44165;SDS011;30476;53.468;9.826;2023-07-31T14:06:21;0.40;;;0.40;;
44165;SDS011;30476;53.468;9.826;2023-07-31T14:08:47;0.40;;;0.30;;
44165;SDS011;30476;53.468;9.826;2023-07-31T14:11:13;0.43;;;0.40;;
44165;SDS011;30476;53.468;9.826;2023-07-31T14:13:39;0.40;;;0.30;;
44165;SDS011;30476;53.468;9.826;2023-07-31T14:16:04;0.57;;;0.40;;
44165;SDS011;30476;53.468;9.826;2023-07-31T14:18:30;0.40;;;0.30;;
44165;SDS011;30476;53.468;9.826;2023-07-31T14:20:56;0.40;;;0.40;;
44165;SDS011;30476;53.468;9.826;2023-07-31T14:23:22;0.60;;;0.40;;
44165;SDS011;30476;53.468;9.826;2023-07-31T14:25:47;0.40;;;0.40;;
44165;SDS011;30476;53.468;9.826;2023-07-31T14:28:13;0.40;;;0.40;;
44165;SDS011;30476;53.468;9.826;2023-07-31T14:30:39;0.50;;;0.50;;
44165;SDS011;30476;53.468;9.826;2023-07-31T14:33:05;0.50;;;0.40;;
44165;SDS011;30476;53.468;9.826;2023-07-31T14:35:31;0.43;;;0.43;;
44165;SDS011;30476;53.468;9.826;2023-07-31T14:37:56;1.17;;;0.57;;
44165;SDS011;30476;53.468;9.826;2023-07-31T14:40:22;0.93;;;0.73;;
44165;SDS011;30476;53.468;9.826;2023-07-31T14:42:48;0.50;;;0.50;;
44165;SDS011;30476;53.468;9.826;2023-07-31T14:45:13;0.60;;;0.60;;
44165;SDS011;30476;53.468;9.826;2023-07-31T14:47:39;0.40;;;0.40;;
44165;SDS011;30476;53.468;9.826;2023-07-31T14:50:05;0.57;;;0.57;;